TVF610 GVAC-GOBD
Flight info
| Callsign | TVF610 |
|---|---|
| Flight time | 1h 0m |
| Altitude | 37000 |
| Route | IRPOT1A POLMO DCT LUMPO DCT LIGOV LIGOV1A |
| Aircraft | A20N/M-SDE2E3FGHIRWXY/LB1 |
Departure
| Time | 2026-04-26 11:37 |
|---|---|
| Airport | Amílcar Cabral International Airport (GVAC) |
Arrival
| Time | 2026-04-26 12:37 |
|---|---|
| Airport | Blaise Diagne International Airport (GOBD) |
| Time | Latitude | Longitude | Altitude | Speed | Heading |
|---|---|---|---|---|---|
| 2026-04-26 11:13 | 16.73430 | -22.94494 | 207 ft | 0 kts | 90° |
| 2026-04-26 11:29 | 16.73430 | -22.94495 | 200 ft | 2 kts | 90° |
| 2026-04-26 11:29 | 16.73430 | -22.94520 | 205 ft | 4 kts | 92° |
| 2026-04-26 11:30 | 16.73432 | -22.94548 | 211 ft | 4 kts | 97° |
| 2026-04-26 11:30 | 16.73435 | -22.94567 | 211 ft | 4 kts | 104° |
| 2026-04-26 11:30 | 16.73450 | -22.94595 | 210 ft | 3 kts | 174° |
| 2026-04-26 11:30 | 16.73453 | -22.94596 | 210 ft | 1 kts | 180° |
| 2026-04-26 11:32 | 16.73442 | -22.94596 | 209 ft | 3 kts | 180° |
| 2026-04-26 11:33 | 16.73405 | -22.94595 | 200 ft | 7 kts | 179° |
| 2026-04-26 11:33 | 16.73340 | -22.94595 | 202 ft | 11 kts | 179° |
| 2026-04-26 11:33 | 16.73299 | -22.94594 | 210 ft | 4 kts | 179° |
| 2026-04-26 11:33 | 16.73271 | -22.94594 | 203 ft | 4 kts | 179° |
| 2026-04-26 11:34 | 16.73231 | -22.94593 | 200 ft | 8 kts | 179° |
| 2026-04-26 11:34 | 16.73164 | -22.94594 | 208 ft | 12 kts | 180° |
| 2026-04-26 11:34 | 16.73082 | -22.94603 | 209 ft | 9 kts | 227° |
| 2026-04-26 11:34 | 16.73045 | -22.94670 | 210 ft | 13 kts | 242° |
| 2026-04-26 11:35 | 16.72992 | -22.94688 | 205 ft | 10 kts | 176° |
| 2026-04-26 11:35 | 16.72881 | -22.94694 | 194 ft | 21 kts | 183° |
| 2026-04-26 11:35 | 16.72724 | -22.94692 | 197 ft | 24 kts | 178° |
| 2026-04-26 11:35 | 16.72551 | -22.94686 | 183 ft | 24 kts | 179° |
| 2026-04-26 11:36 | 16.72416 | -22.94703 | 183 ft | 11 kts | 232° |
| 2026-04-26 11:36 | 16.72406 | -22.94769 | 184 ft | 6 kts | 270° |
| 2026-04-26 11:36 | 16.72406 | -22.94817 | 185 ft | 8 kts | 270° |
| 2026-04-26 11:36 | 16.72415 | -22.94878 | 186 ft | 9 kts | 298° |
| 2026-04-26 11:37 | 16.72446 | -22.94889 | 187 ft | 5 kts | 355° |
| 2026-04-26 11:37 | 16.72674 | -22.94886 | 186 ft | 76 kts | 359° |
| 2026-04-26 11:37 | 16.73476 | -22.94893 | 198 ft | 150 kts | 359° |
| 2026-04-26 11:37 | 16.74618 | -22.94930 | 778 ft | 168 kts | 1° |
| 2026-04-26 11:38 | 16.75831 | -22.95002 | 1616 ft | 183 kts | 358° |
| 2026-04-26 11:38 | 16.77177 | -22.95019 | 2365 ft | 202 kts | 4° |
| 2026-04-26 11:38 | 16.78645 | -22.94941 | 3028 ft | 223 kts | 3° |
| 2026-04-26 11:38 | 16.80224 | -22.94929 | 3877 ft | 228 kts | 0° |
| 2026-04-26 11:39 | 16.81837 | -22.94939 | 4771 ft | 238 kts | 356° |
| 2026-04-26 11:39 | 16.83591 | -22.94915 | 5195 ft | 266 kts | 5° |
| 2026-04-26 11:39 | 16.85375 | -22.94212 | 5914 ft | 286 kts | 32° |
| 2026-04-26 11:39 | 16.86748 | -22.92669 | 6743 ft | 299 kts | 58° |
| 2026-04-26 11:40 | 16.87404 | -22.90582 | 7482 ft | 308 kts | 83° |
| 2026-04-26 11:40 | 16.87484 | -22.88335 | 7852 ft | 311 kts | 93° |
| 2026-04-26 11:40 | 16.87373 | -22.86073 | 7997 ft | 312 kts | 94° |
| 2026-04-26 11:40 | 16.87261 | -22.83809 | 8047 ft | 313 kts | 93° |
| 2026-04-26 11:41 | 16.87196 | -22.81539 | 8073 ft | 315 kts | 92° |
| 2026-04-26 11:42 | 16.81368 | -22.67282 | 10944 ft | 352 kts | 128° |
| 2026-04-26 11:43 | 16.79925 | -22.65142 | 11446 ft | 366 kts | 128° |
| 2026-04-26 11:43 | 16.78457 | -22.62960 | 12281 ft | 369 kts | 128° |
| 2026-04-26 11:43 | 16.76974 | -22.60759 | 13122 ft | 372 kts | 127° |
| 2026-04-26 11:43 | 16.75474 | -22.58536 | 13920 ft | 377 kts | 127° |
| 2026-04-26 11:44 | 16.73953 | -22.56285 | 14582 ft | 382 kts | 127° |
| 2026-04-26 11:44 | 16.72410 | -22.54002 | 15220 ft | 388 kts | 127° |
| 2026-04-26 11:44 | 16.70841 | -22.51681 | 15851 ft | 394 kts | 127° |
| 2026-04-26 11:44 | 16.69251 | -22.49329 | 16478 ft | 399 kts | 127° |
| 2026-04-26 11:45 | 16.67639 | -22.46946 | 17092 ft | 404 kts | 127° |
| 2026-04-26 11:45 | 16.66006 | -22.44532 | 17685 ft | 410 kts | 127° |
| 2026-04-26 11:45 | 16.64349 | -22.42084 | 18248 ft | 416 kts | 127° |
| 2026-04-26 11:45 | 16.62671 | -22.39606 | 18763 ft | 420 kts | 127° |
| 2026-04-26 11:46 | 16.60976 | -22.37105 | 19283 ft | 425 kts | 127° |
| 2026-04-26 11:46 | 16.59262 | -22.34577 | 19771 ft | 429 kts | 127° |
| 2026-04-26 11:46 | 16.57531 | -22.32025 | 20280 ft | 433 kts | 127° |
| 2026-04-26 11:46 | 16.55794 | -22.29436 | 20775 ft | 438 kts | 124° |
| 2026-04-26 11:47 | 16.54311 | -22.26651 | 21265 ft | 443 kts | 115° |
| 2026-04-26 11:47 | 16.53058 | -22.23701 | 21754 ft | 447 kts | 114° |
| 2026-04-26 11:47 | 16.51790 | -22.20725 | 22244 ft | 451 kts | 114° |
| 2026-04-26 11:47 | 16.50503 | -22.17720 | 22717 ft | 455 kts | 114° |
| 2026-04-26 11:48 | 16.49208 | -22.14706 | 23296 ft | 457 kts | 114° |
| 2026-04-26 11:48 | 16.47903 | -22.11669 | 23723 ft | 461 kts | 114° |
| 2026-04-26 11:48 | 16.46586 | -22.08606 | 24121 ft | 465 kts | 114° |
| 2026-04-26 11:48 | 16.45259 | -22.05521 | 24514 ft | 468 kts | 114° |
| 2026-04-26 11:49 | 16.43919 | -22.02405 | 24901 ft | 472 kts | 114° |
| 2026-04-26 11:49 | 16.42571 | -21.99275 | 25281 ft | 475 kts | 114° |
| 2026-04-26 11:49 | 16.41214 | -21.96122 | 25650 ft | 479 kts | 114° |
| 2026-04-26 11:49 | 16.39846 | -21.92947 | 26012 ft | 482 kts | 114° |
| 2026-04-26 11:50 | 16.38518 | -21.89866 | 26359 ft | 485 kts | 114° |
| 2026-04-26 11:50 | 16.37125 | -21.86636 | 26715 ft | 489 kts | 114° |
| 2026-04-26 11:50 | 16.35728 | -21.83397 | 27057 ft | 492 kts | 114° |
| 2026-04-26 11:50 | 16.34322 | -21.80139 | 27405 ft | 495 kts | 114° |
| 2026-04-26 11:51 | 16.32907 | -21.76859 | 27690 ft | 499 kts | 114° |
| 2026-04-26 11:51 | 16.31549 | -21.73715 | 28006 ft | 502 kts | 114° |
| 2026-04-26 11:51 | 16.30131 | -21.70436 | 28327 ft | 505 kts | 114° |
| 2026-04-26 11:51 | 16.28686 | -21.67094 | 28647 ft | 508 kts | 114° |
| 2026-04-26 11:52 | 16.27262 | -21.63718 | 28944 ft | 511 kts | 111° |
| 2026-04-26 11:52 | 16.26421 | -21.61376 | 29137 ft | 512 kts | 110° |
| 2026-04-26 11:52 | 16.24776 | -21.56758 | 29518 ft | 516 kts | 110° |
| 2026-04-26 11:52 | 16.23525 | -21.53255 | 29939 ft | 516 kts | 110° |
| 2026-04-26 11:53 | 16.22271 | -21.49747 | 30209 ft | 519 kts | 110° |
| 2026-04-26 11:53 | 16.21008 | -21.46217 | 30485 ft | 521 kts | 110° |
| 2026-04-26 11:53 | 16.19739 | -21.42673 | 30737 ft | 524 kts | 110° |
| 2026-04-26 11:54 | 16.17189 | -21.35561 | 31389 ft | 525 kts | 110° |
| 2026-04-26 11:54 | 16.15913 | -21.32004 | 31798 ft | 524 kts | 110° |
| 2026-04-26 11:54 | 16.14641 | -21.28459 | 32210 ft | 522 kts | 111° |
| 2026-04-26 11:54 | 16.13371 | -21.24924 | 32609 ft | 521 kts | 111° |
| 2026-04-26 11:55 | 16.12106 | -21.21405 | 33001 ft | 520 kts | 111° |
| 2026-04-26 11:55 | 16.10841 | -21.17888 | 33390 ft | 519 kts | 111° |
| 2026-04-26 11:55 | 16.09579 | -21.14380 | 33777 ft | 517 kts | 111° |
| 2026-04-26 11:55 | 16.08319 | -21.10878 | 34102 ft | 517 kts | 111° |
| 2026-04-26 11:56 | 16.07057 | -21.07378 | 34415 ft | 516 kts | 111° |
| 2026-04-26 11:56 | 16.05796 | -21.03880 | 34723 ft | 515 kts | 111° |
| 2026-04-26 11:56 | 16.04556 | -21.00445 | 35016 ft | 515 kts | 111° |
| 2026-04-26 11:56 | 16.03300 | -20.96964 | 35293 ft | 514 kts | 111° |
| 2026-04-26 11:57 | 16.02043 | -20.93487 | 35580 ft | 513 kts | 111° |
| 2026-04-26 11:57 | 16.00788 | -20.90014 | 35860 ft | 513 kts | 111° |
| 2026-04-26 11:57 | 15.99533 | -20.86545 | 36145 ft | 512 kts | 111° |
| 2026-04-26 11:57 | 15.98281 | -20.83086 | 36507 ft | 508 kts | 111° |
| 2026-04-26 11:58 | 15.97044 | -20.79668 | 36807 ft | 504 kts | 112° |
| 2026-04-26 11:58 | 15.95809 | -20.76255 | 36956 ft | 505 kts | 112° |
| 2026-04-26 11:58 | 15.94569 | -20.72837 | 37019 ft | 505 kts | 112° |
| 2026-04-26 11:59 | 15.92094 | -20.66018 | 37015 ft | 504 kts | 112° |
| 2026-04-26 11:59 | 15.89619 | -20.59203 | 37005 ft | 504 kts | 112° |
| 2026-04-26 12:00 | 15.87141 | -20.52388 | 37004 ft | 504 kts | 112° |
| 2026-04-26 12:00 | 15.84660 | -20.45571 | 37011 ft | 505 kts | 112° |
| 2026-04-26 12:01 | 15.82170 | -20.38739 | 37016 ft | 506 kts | 112° |
| 2026-04-26 12:01 | 15.79672 | -20.31891 | 37015 ft | 507 kts | 112° |
| 2026-04-26 12:02 | 15.77171 | -20.25042 | 37003 ft | 506 kts | 112° |
| 2026-04-26 12:02 | 15.74678 | -20.18224 | 36996 ft | 505 kts | 112° |
| 2026-04-26 12:03 | 15.72183 | -20.11407 | 37001 ft | 504 kts | 112° |
| 2026-04-26 12:03 | 15.69696 | -20.04622 | 36998 ft | 504 kts | 112° |
| 2026-04-26 12:04 | 15.67207 | -19.97818 | 36998 ft | 504 kts | 112° |
| 2026-04-26 12:04 | 15.64794 | -19.91045 | 36997 ft | 504 kts | 112° |
| 2026-04-26 12:05 | 15.62370 | -19.84224 | 36999 ft | 504 kts | 112° |
| 2026-04-26 12:05 | 15.59936 | -19.77409 | 36989 ft | 504 kts | 112° |
| 2026-04-26 12:06 | 15.57494 | -19.70586 | 36991 ft | 505 kts | 112° |
| 2026-04-26 12:06 | 15.55049 | -19.63761 | 36995 ft | 505 kts | 112° |
| 2026-04-26 12:07 | 15.52600 | -19.56934 | 36998 ft | 505 kts | 112° |
| 2026-04-26 12:07 | 15.50548 | -19.51218 | 36988 ft | 505 kts | 112° |
| 2026-04-26 12:08 | 15.48094 | -19.44388 | 36994 ft | 506 kts | 112° |
| 2026-04-26 12:08 | 15.45366 | -19.37696 | 36979 ft | 501 kts | 120° |
| 2026-04-26 12:09 | 15.42246 | -19.31255 | 36983 ft | 500 kts | 119° |
| 2026-04-26 12:09 | 15.39155 | -19.24840 | 36976 ft | 501 kts | 119° |
| 2026-04-26 12:10 | 15.36043 | -19.18387 | 36981 ft | 500 kts | 119° |
| 2026-04-26 12:10 | 15.32929 | -19.11941 | 36985 ft | 500 kts | 119° |
| 2026-04-26 12:11 | 15.29810 | -19.05490 | 36979 ft | 501 kts | 120° |
| 2026-04-26 12:11 | 15.26682 | -18.99026 | 36979 ft | 501 kts | 120° |
| 2026-04-26 12:12 | 15.23555 | -18.92570 | 36981 ft | 502 kts | 120° |
| 2026-04-26 12:12 | 15.20424 | -18.86113 | 36980 ft | 502 kts | 120° |
| 2026-04-26 12:13 | 15.17313 | -18.79701 | 36970 ft | 499 kts | 120° |
| 2026-04-26 12:13 | 15.14218 | -18.73328 | 36975 ft | 495 kts | 120° |
| 2026-04-26 12:14 | 15.11120 | -18.66959 | 36975 ft | 496 kts | 120° |
| 2026-04-26 12:14 | 15.08026 | -18.60597 | 36593 ft | 494 kts | 119° |
| 2026-04-26 12:14 | 15.06472 | -18.57408 | 35850 ft | 498 kts | 119° |
| 2026-04-26 12:15 | 15.04905 | -18.54196 | 34894 ft | 505 kts | 119° |
| 2026-04-26 12:15 | 15.03305 | -18.50921 | 33770 ft | 515 kts | 118° |
| 2026-04-26 12:15 | 15.01674 | -18.47582 | 32609 ft | 524 kts | 118° |
| 2026-04-26 12:15 | 15.00027 | -18.44208 | 31609 ft | 527 kts | 117° |
| 2026-04-26 12:16 | 14.98372 | -18.40816 | 30652 ft | 529 kts | 117° |
| 2026-04-26 12:16 | 14.96704 | -18.37402 | 29591 ft | 532 kts | 117° |
| 2026-04-26 12:16 | 14.95043 | -18.33999 | 28769 ft | 528 kts | 117° |
| 2026-04-26 12:16 | 14.93403 | -18.30639 | 28166 ft | 519 kts | 117° |
| 2026-04-26 12:17 | 14.91786 | -18.27329 | 27476 ft | 513 kts | 117° |
| 2026-04-26 12:17 | 14.90185 | -18.24054 | 26798 ft | 508 kts | 118° |
| 2026-04-26 12:17 | 14.88601 | -18.20817 | 26184 ft | 500 kts | 118° |
| 2026-04-26 12:17 | 14.87044 | -18.17633 | 25605 ft | 493 kts | 118° |
| 2026-04-26 12:18 | 14.85504 | -18.14487 | 24966 ft | 488 kts | 118° |
| 2026-04-26 12:18 | 14.83980 | -18.11375 | 24353 ft | 483 kts | 118° |
| 2026-04-26 12:18 | 14.82473 | -18.08297 | 23765 ft | 477 kts | 118° |
| 2026-04-26 12:18 | 14.80983 | -18.05254 | 23102 ft | 472 kts | 118° |
| 2026-04-26 12:19 | 14.79508 | -18.02245 | 22416 ft | 467 kts | 118° |
| 2026-04-26 12:19 | 14.78050 | -17.99274 | 21737 ft | 462 kts | 118° |
| 2026-04-26 12:19 | 14.76607 | -17.96334 | 21234 ft | 454 kts | 118° |
| 2026-04-26 12:19 | 14.75201 | -17.93470 | 21039 ft | 438 kts | 118° |
| 2026-04-26 12:20 | 14.73851 | -17.90718 | 20971 ft | 424 kts | 118° |
| 2026-04-26 12:20 | 14.72522 | -17.88014 | 20968 ft | 431 kts | 118° |
| 2026-04-26 12:20 | 14.71164 | -17.85254 | 20876 ft | 431 kts | 118° |
| 2026-04-26 12:20 | 14.69804 | -17.82490 | 20421 ft | 431 kts | 118° |
| 2026-04-26 12:21 | 14.68440 | -17.79718 | 19692 ft | 435 kts | 118° |
| 2026-04-26 12:21 | 14.67061 | -17.76916 | 18833 ft | 440 kts | 118° |
| 2026-04-26 12:21 | 14.65679 | -17.74109 | 18167 ft | 438 kts | 118° |
| 2026-04-26 12:21 | 14.64309 | -17.71324 | 17575 ft | 431 kts | 118° |
| 2026-04-26 12:22 | 14.62958 | -17.68578 | 16974 ft | 425 kts | 118° |
| 2026-04-26 12:22 | 14.61630 | -17.65880 | 16381 ft | 418 kts | 118° |
| 2026-04-26 12:22 | 14.60323 | -17.63226 | 15804 ft | 412 kts | 118° |
| 2026-04-26 12:22 | 14.59033 | -17.60607 | 15296 ft | 404 kts | 118° |
| 2026-04-26 12:23 | 14.57767 | -17.58038 | 14725 ft | 399 kts | 119° |
| 2026-04-26 12:23 | 14.56517 | -17.55504 | 14182 ft | 393 kts | 119° |
| 2026-04-26 12:23 | 14.55286 | -17.53007 | 13649 ft | 387 kts | 119° |
| 2026-04-26 12:23 | 14.54087 | -17.50579 | 13021 ft | 383 kts | 119° |
| 2026-04-26 12:24 | 14.52864 | -17.48105 | 12365 ft | 380 kts | 119° |
| 2026-04-26 12:24 | 14.51666 | -17.45682 | 11750 ft | 377 kts | 119° |
| 2026-04-26 12:24 | 14.50481 | -17.43284 | 11141 ft | 373 kts | 119° |
| 2026-04-26 12:25 | 14.48165 | -17.38600 | 10408 ft | 354 kts | 119° |
| 2026-04-26 12:25 | 14.47071 | -17.36386 | 10261 ft | 339 kts | 119° |
| 2026-04-26 12:25 | 14.46023 | -17.34266 | 10143 ft | 324 kts | 119° |
| 2026-04-26 12:25 | 14.45019 | -17.32236 | 10022 ft | 311 kts | 119° |
| 2026-04-26 12:26 | 14.44065 | -17.30308 | 9798 ft | 302 kts | 119° |
| 2026-04-26 12:26 | 14.43112 | -17.28387 | 9393 ft | 300 kts | 119° |
| 2026-04-26 12:26 | 14.42162 | -17.26474 | 8952 ft | 299 kts | 119° |
| 2026-04-26 12:26 | 14.41216 | -17.24567 | 8515 ft | 298 kts | 119° |
| 2026-04-26 12:27 | 14.40273 | -17.22666 | 8096 ft | 297 kts | 118° |
| 2026-04-26 12:27 | 14.39330 | -17.20765 | 7667 ft | 297 kts | 119° |
| 2026-04-26 12:27 | 14.38563 | -17.18834 | 7519 ft | 286 kts | 101° |
| 2026-04-26 12:27 | 14.38479 | -17.17733 | 7441 ft | 282 kts | 87° |
| 2026-04-26 12:28 | 14.38954 | -17.15891 | 7168 ft | 277 kts | 61° |
| 2026-04-26 12:28 | 14.40155 | -17.14359 | 6832 ft | 274 kts | 42° |
| 2026-04-26 12:28 | 14.41579 | -17.13073 | 6543 ft | 271 kts | 38° |
| 2026-04-26 12:28 | 14.43023 | -17.11821 | 6150 ft | 272 kts | 39° |
| 2026-04-26 12:29 | 14.44438 | -17.10549 | 5876 ft | 268 kts | 40° |
| 2026-04-26 12:29 | 14.45810 | -17.09265 | 5554 ft | 267 kts | 41° |
| 2026-04-26 12:29 | 14.48707 | -17.07219 | 5320 ft | 241 kts | 10° |
| 2026-04-26 12:30 | 14.50327 | -17.07119 | 5221 ft | 227 kts | 357° |
| 2026-04-26 12:30 | 14.51859 | -17.07173 | 5135 ft | 214 kts | 347° |
| 2026-04-26 12:30 | 14.53114 | -17.07820 | 5049 ft | 197 kts | 311° |
| 2026-04-26 12:31 | 14.53391 | -17.10370 | 4927 ft | 198 kts | 238° |
| 2026-04-26 12:31 | 14.52389 | -17.11314 | 4814 ft | 198 kts | 207° |
| 2026-04-26 12:31 | 14.51092 | -17.11844 | 4705 ft | 203 kts | 191° |
| 2026-04-26 12:31 | 14.49678 | -17.11678 | 4585 ft | 209 kts | 162° |
| 2026-04-26 12:32 | 14.48317 | -17.11178 | 4464 ft | 205 kts | 161° |
| 2026-04-26 12:32 | 14.47065 | -17.10501 | 4328 ft | 206 kts | 134° |
| 2026-04-26 12:32 | 14.46200 | -17.07751 | 4087 ft | 201 kts | 79° |
| 2026-04-26 12:33 | 14.46759 | -17.06537 | 3892 ft | 185 kts | 33° |
| 2026-04-26 12:33 | 14.47961 | -17.06193 | 3672 ft | 184 kts | 347° |
| 2026-04-26 12:33 | 14.49180 | -17.06535 | 3420 ft | 185 kts | 340° |
| 2026-04-26 12:33 | 14.50436 | -17.06912 | 3148 ft | 186 kts | 346° |
| 2026-04-26 12:34 | 14.51699 | -17.07100 | 2918 ft | 181 kts | 354° |
| 2026-04-26 12:34 | 14.52928 | -17.07156 | 2687 ft | 177 kts | 358° |
| 2026-04-26 12:34 | 14.54153 | -17.07159 | 2467 ft | 172 kts | 357° |
| 2026-04-26 12:34 | 14.55332 | -17.07174 | 2249 ft | 168 kts | 358° |
| 2026-04-26 12:35 | 14.56496 | -17.07183 | 2038 ft | 165 kts | 358° |
| 2026-04-26 12:35 | 14.57617 | -17.07193 | 1852 ft | 156 kts | 359° |
| 2026-04-26 12:35 | 14.58677 | -17.07204 | 1637 ft | 152 kts | 360° |
| 2026-04-26 12:35 | 14.59733 | -17.07214 | 1430 ft | 152 kts | 359° |
| 2026-04-26 12:36 | 14.60768 | -17.07223 | 1230 ft | 146 kts | 359° |
| 2026-04-26 12:36 | 14.61813 | -17.07233 | 1040 ft | 153 kts | 358° |
| 2026-04-26 12:36 | 14.62835 | -17.07242 | 844 ft | 144 kts | 358° |
| 2026-04-26 12:36 | 14.63794 | -17.07251 | 660 ft | 130 kts | 0° |
| 2026-04-26 12:37 | 14.64684 | -17.07261 | 489 ft | 129 kts | 0° |
| 2026-04-26 12:37 | 14.65580 | -17.07267 | 345 ft | 128 kts | 359° |
| 2026-04-26 12:37 | 14.66433 | -17.07273 | 293 ft | 108 kts | 359° |
| 2026-04-26 12:37 | 14.66935 | -17.07280 | 301 ft | 30 kts | 1° |
| 2026-04-26 12:38 | 14.67073 | -17.07234 | 298 ft | 14 kts | 64° |
| 2026-04-26 12:38 | 14.67076 | -17.07166 | 298 ft | 2 kts | 91° |
| 2026-04-26 12:38 | 14.67075 | -17.07131 | 298 ft | 4 kts | 90° |
| 2026-04-26 12:38 | 14.67075 | -17.07084 | 295 ft | 9 kts | 89° |
| 2026-04-26 12:39 | 14.67077 | -17.07004 | 295 ft | 9 kts | 89° |
| 2026-04-26 12:39 | 14.67055 | -17.06973 | 293 ft | 5 kts | 186° |
| 2026-04-26 12:39 | 14.67018 | -17.06958 | 296 ft | 7 kts | 123° |
| 2026-04-26 12:39 | 14.67023 | -17.06904 | 294 ft | 9 kts | 87° |
| 2026-04-26 12:40 | 14.67023 | -17.06866 | 292 ft | 5 kts | 89° |
| 2026-04-26 12:40 | 14.67023 | -17.06858 | 292 ft | 0 kts | 89° |